createdAt,value
2019-03-16T00:01:06.610Z,0.77
2019-03-16T00:07:32.430Z,0.70
2019-03-16T00:09:59.042Z,0.70
2019-03-16T00:12:36.638Z,0.70
2019-03-16T00:15:16.517Z,0.80
2019-03-16T00:17:50.910Z,0.97
2019-03-16T00:23:46.863Z,0.90
2019-03-16T00:30:10.229Z,0.90
2019-03-16T00:32:45.498Z,0.60
2019-03-16T00:35:20.488Z,0.70
2019-03-16T00:38:00.042Z,0.80
2019-03-16T00:40:35.516Z,0.60
2019-03-16T00:46:52.491Z,0.70
2019-03-16T00:49:27.962Z,0.60
2019-03-16T00:52:04.542Z,0.70
2019-03-16T00:54:41.540Z,0.70
2019-03-16T00:57:15.550Z,0.60
2019-03-16T00:59:55.059Z,0.60
2019-03-16T01:02:32.721Z,0.60
2019-03-16T01:05:07.178Z,0.60
2019-03-16T01:07:49.524Z,0.77
2019-03-16T01:10:24.206Z,0.70
2019-03-16T01:13:03.952Z,0.80
2019-03-16T01:15:41.029Z,0.80
2019-03-16T01:18:17.094Z,0.60
2019-03-16T01:20:52.560Z,0.70
2019-03-16T01:23:31.053Z,0.60
2019-03-16T01:26:07.921Z,0.77
2019-03-16T01:28:49.100Z,0.63
2019-03-16T01:31:30.625Z,0.63
2019-03-16T01:34:06.132Z,0.67
2019-03-16T01:36:41.983Z,0.63
2019-03-16T01:39:18.580Z,0.70
2019-03-16T01:41:57.241Z,0.70
2019-03-16T01:44:30.978Z,0.60
2019-03-16T01:47:11.740Z,0.63
2019-03-16T01:49:49.663Z,0.70
2019-03-16T01:52:25.086Z,0.70
2019-03-16T01:55:02.993Z,0.70
2019-03-16T01:57:41.562Z,0.70
2019-03-16T02:00:26.753Z,0.90
2019-03-16T02:03:14.748Z,0.73
2019-03-16T02:05:47.563Z,0.53
2019-03-16T02:08:23.139Z,0.60
2019-03-16T02:11:04.723Z,0.70
2019-03-16T02:13:38.573Z,0.83
2019-03-16T02:16:12.574Z,0.70
2019-03-16T02:18:47.985Z,0.60
2019-03-16T02:24:40.036Z,0.70
2019-03-16T02:27:18.593Z,0.80
2019-03-16T02:33:22.072Z,0.67
2019-03-16T02:36:01.202Z,0.80
2019-03-16T02:38:38.081Z,0.70
2019-03-16T02:44:41.200Z,0.60
2019-03-16T02:47:16.018Z,0.70
2019-03-16T02:49:55.348Z,0.70
2019-03-16T02:52:31.204Z,0.73
2019-03-16T02:55:07.476Z,0.70
2019-03-16T02:57:44.138Z,0.70
2019-03-16T03:00:21.226Z,0.70
2019-03-16T03:03:03.028Z,0.60
2019-03-16T03:05:48.080Z,0.67
2019-03-16T03:08:31.927Z,0.60
2019-03-16T03:11:09.001Z,0.50
2019-03-16T03:13:45.591Z,0.50
2019-03-16T03:16:22.138Z,0.70
2019-03-16T03:19:01.834Z,0.77
2019-03-16T03:21:49.215Z,0.60
2019-03-16T03:24:30.379Z,0.60
2019-03-16T03:27:10.133Z,0.60
2019-03-16T03:29:47.216Z,0.60
2019-03-16T03:32:25.614Z,0.77
2019-03-16T03:35:09.182Z,0.70
2019-03-16T03:37:46.036Z,0.70
2019-03-16T03:40:25.633Z,0.63
2019-03-16T03:42:59.628Z,0.70
2019-03-16T03:45:37.069Z,0.60
2019-03-16T03:48:13.957Z,0.70
2019-03-16T03:50:54.754Z,0.60
2019-03-16T03:53:32.615Z,0.70
2019-03-16T03:56:15.244Z,0.60
2019-03-16T03:58:54.607Z,0.50
2019-03-16T04:04:58.623Z,0.67
2019-03-16T04:07:32.623Z,1.00
2019-03-16T04:13:48.101Z,0.63
2019-03-16T04:20:05.149Z,0.70
2019-03-16T04:22:40.179Z,0.70
2019-03-16T04:25:29.754Z,0.60
2019-03-16T04:28:04.628Z,0.70
2019-03-16T04:30:40.427Z,0.77
2019-03-16T04:37:00.945Z,0.70
2019-03-16T04:39:41.512Z,0.80
2019-03-16T04:42:18.194Z,0.63
2019-03-16T04:44:58.334Z,0.80
2019-03-16T04:47:31.645Z,0.60
2019-03-16T04:50:07.635Z,0.70
2019-03-16T04:52:44.093Z,0.87
2019-03-16T04:55:20.310Z,0.87
2019-03-16T04:57:56.161Z,0.97
2019-03-16T05:00:32.256Z,0.70
2019-03-16T05:03:11.744Z,0.70
2019-03-16T05:05:53.999Z,0.60
2019-03-16T05:08:27.369Z,0.80
2019-03-16T05:11:02.186Z,0.70
2019-03-16T05:13:39.062Z,0.70
2019-03-16T05:16:13.481Z,0.77
2019-03-16T05:18:49.129Z,0.70
2019-03-16T05:21:25.185Z,0.70
2019-03-16T05:24:02.889Z,1.10
2019-03-16T05:26:36.073Z,0.80
2019-03-16T05:29:15.212Z,0.80
2019-03-16T05:31:51.465Z,0.70
2019-03-16T05:34:31.316Z,0.70
2019-03-16T05:37:07.105Z,0.70
2019-03-16T05:39:43.322Z,0.80
2019-03-16T05:42:18.361Z,0.70
2019-03-16T05:44:53.638Z,0.60
2019-03-16T05:47:28.219Z,0.63
2019-03-16T05:50:04.079Z,0.60
2019-03-16T05:52:42.178Z,0.70
2019-03-16T05:55:17.210Z,0.70
2019-03-16T05:57:51.665Z,0.70
2019-03-16T06:00:26.893Z,0.67
2019-03-16T06:03:06.654Z,0.70
2019-03-16T06:05:43.079Z,0.77
2019-03-16T06:08:19.136Z,0.70
2019-03-16T06:10:56.217Z,0.70
2019-03-16T06:13:37.629Z,0.70
2019-03-16T06:16:16.536Z,0.80
2019-03-16T06:18:50.816Z,1.00
2019-03-16T06:21:30.776Z,0.80
2019-03-16T06:24:01.657Z,0.90
2019-03-16T06:26:35.662Z,0.70
2019-03-16T06:29:28.077Z,0.60
2019-03-16T06:32:05.655Z,0.80
2019-03-16T06:34:41.216Z,0.60
2019-03-16T06:37:17.288Z,0.70
2019-03-16T06:39:52.305Z,0.70
2019-03-16T06:42:28.709Z,0.70
2019-03-16T06:45:06.708Z,0.70
2019-03-16T06:47:45.395Z,0.60
2019-03-16T06:50:20.228Z,0.90
2019-03-16T06:52:54.762Z,0.60
2019-03-16T06:55:30.370Z,0.70
2019-03-16T06:58:09.736Z,0.70
2019-03-16T07:00:44.731Z,0.70
2019-03-16T07:03:22.888Z,0.70
2019-03-16T07:06:01.279Z,0.77
2019-03-16T07:08:44.231Z,0.73
2019-03-16T07:14:48.227Z,0.60
2019-03-16T07:17:24.490Z,0.80
2019-03-16T07:23:28.244Z,0.80
2019-03-16T07:29:30.746Z,0.90
2019-03-16T07:32:06.154Z,0.70
2019-03-16T07:34:43.718Z,0.73
2019-03-16T07:37:22.161Z,0.80
2019-03-16T07:40:00.741Z,0.80
2019-03-16T07:42:37.142Z,0.80
2019-03-16T07:45:18.769Z,0.73
2019-03-16T07:47:54.174Z,0.60
2019-03-16T07:50:29.208Z,0.80
2019-03-16T07:53:04.239Z,0.60
2019-03-16T07:55:42.504Z,0.50
2019-03-16T07:58:40.216Z,0.73
2019-03-16T08:01:14.775Z,0.97
2019-03-16T08:03:52.435Z,0.83
2019-03-16T08:06:27.743Z,0.70
2019-03-16T08:09:05.218Z,0.70
2019-03-16T08:11:41.231Z,0.70
2019-03-16T08:14:19.761Z,0.70
2019-03-16T08:20:36.570Z,0.90
2019-03-16T08:23:13.242Z,0.73
2019-03-16T08:25:50.333Z,0.70
2019-03-16T08:28:25.791Z,0.90
2019-03-16T08:31:01.046Z,1.00
2019-03-16T08:33:36.444Z,0.80
2019-03-16T08:39:29.518Z,1.00
2019-03-16T08:45:47.994Z,0.90
2019-03-16T08:48:28.247Z,0.80
2019-03-16T08:51:06.657Z,0.80
2019-03-16T08:53:45.342Z,0.73
2019-03-16T08:56:21.640Z,1.00
2019-03-16T08:58:56.468Z,0.80
2019-03-16T09:01:32.528Z,0.80
2019-03-16T09:04:08.036Z,0.90
2019-03-16T09:06:52.729Z,0.77
2019-03-16T09:09:23.566Z,0.70
2019-03-16T09:11:59.626Z,0.80
2019-03-16T09:14:39.046Z,0.80
2019-03-16T09:17:13.582Z,1.00
2019-03-16T09:19:50.664Z,0.80
2019-03-16T09:22:34.105Z,0.80
2019-03-16T09:25:08.512Z,0.83
2019-03-16T09:27:46.567Z,0.83
2019-03-16T09:30:23.600Z,1.00
2019-03-16T09:33:04.624Z,1.00
2019-03-16T09:35:39.128Z,0.90
2019-03-16T09:38:18.150Z,0.80
2019-03-16T09:40:55.814Z,0.80
2019-03-16T09:43:34.948Z,0.80
2019-03-16T09:46:22.678Z,0.73
2019-03-16T09:49:07.950Z,0.73
2019-03-16T09:51:50.773Z,1.10
2019-03-16T09:54:27.650Z,0.80
2019-03-16T09:57:02.717Z,0.80
2019-03-16T09:59:37.708Z,0.70
2019-03-16T10:02:14.792Z,0.93
2019-03-16T10:04:50.857Z,1.03
2019-03-16T10:07:28.752Z,0.60
2019-03-16T10:10:05.012Z,0.80
2019-03-16T10:12:42.255Z,1.00
2019-03-16T10:15:17.440Z,0.80
2019-03-16T10:17:53.798Z,0.80
2019-03-16T10:20:31.289Z,1.00
2019-03-16T10:23:11.859Z,1.00
2019-03-16T10:25:46.905Z,0.80
2019-03-16T10:28:23.969Z,1.00
2019-03-16T10:31:01.055Z,0.90
2019-03-16T10:33:35.889Z,0.90
2019-03-16T10:36:12.960Z,1.10
2019-03-16T10:38:49.221Z,1.00
2019-03-16T10:41:24.664Z,0.80
2019-03-16T10:44:03.453Z,0.90
2019-03-16T10:46:44.979Z,1.30
2019-03-16T10:49:23.725Z,0.70
2019-03-16T10:51:59.134Z,1.10
2019-03-16T10:54:34.174Z,0.90
2019-03-16T10:57:12.962Z,1.03
2019-03-16T10:59:46.283Z,0.90
2019-03-16T11:02:21.932Z,0.70
2019-03-16T11:04:58.781Z,1.27
2019-03-16T11:07:35.456Z,1.10
2019-03-16T11:10:10.001Z,1.10
2019-03-16T11:12:48.926Z,1.00
2019-03-16T11:15:24.163Z,1.10
2019-03-16T11:18:03.099Z,0.77
2019-03-16T11:20:38.121Z,0.90
2019-03-16T11:23:14.182Z,0.80
2019-03-16T11:29:21.184Z,0.90
2019-03-16T11:32:14.722Z,0.80
2019-03-16T11:34:48.043Z,0.90
2019-03-16T11:37:23.729Z,0.80
2019-03-16T11:39:59.143Z,1.00
2019-03-16T11:42:35.192Z,0.70
2019-03-16T11:45:16.845Z,0.87
2019-03-16T11:51:22.144Z,1.07
2019-03-16T11:53:58.405Z,0.90
2019-03-16T11:56:37.951Z,0.77
2019-03-16T11:59:21.657Z,0.83
2019-03-16T12:01:49.242Z,1.03
2019-03-16T12:04:24.726Z,0.80
2019-03-16T12:07:04.730Z,0.80
2019-03-16T12:09:39.729Z,1.00
2019-03-16T12:12:16.130Z,0.73
2019-03-16T12:14:54.596Z,1.00
2019-03-16T12:17:30.301Z,0.73
2019-03-16T12:20:13.521Z,1.10
2019-03-16T12:22:52.239Z,1.00
2019-03-16T12:25:28.825Z,0.70
2019-03-16T12:28:06.611Z,0.83
2019-03-16T12:30:43.279Z,0.70
2019-03-16T12:33:19.952Z,1.10
2019-03-16T12:36:09.534Z,0.87
2019-03-16T12:38:52.677Z,0.70
2019-03-16T12:41:30.254Z,0.77
2019-03-16T12:44:07.421Z,1.30
2019-03-16T12:46:44.757Z,1.30
2019-03-16T12:49:21.077Z,0.80
2019-03-16T12:55:00.383Z,0.97
2019-03-16T13:01:03.629Z,1.10
2019-03-16T13:03:39.189Z,1.40
2019-03-16T13:06:13.657Z,1.10
2019-03-16T13:08:49.255Z,0.93
2019-03-16T13:11:32.078Z,0.77
2019-03-16T13:14:08.672Z,1.00
2019-03-16T13:16:50.824Z,0.97
2019-03-16T13:22:57.244Z,0.80
2019-03-16T13:28:47.640Z,1.00
2019-03-16T13:34:59.159Z,1.00
2019-03-16T13:37:34.215Z,0.87
2019-03-16T13:40:09.324Z,1.20
2019-03-16T13:46:21.049Z,0.90
2019-03-16T13:48:59.098Z,0.80
2019-03-16T13:51:36.547Z,0.80
2019-03-16T13:54:12.786Z,0.90
2019-03-16T13:56:52.738Z,0.80
2019-03-16T13:59:30.814Z,0.70
2019-03-16T14:02:09.767Z,0.90
2019-03-16T14:04:50.368Z,0.70
2019-03-16T14:07:27.831Z,0.80
2019-03-16T14:10:04.904Z,0.90
2019-03-16T14:12:40.756Z,0.90
2019-03-16T14:15:17.847Z,1.23
2019-03-16T14:17:53.894Z,1.00
2019-03-16T14:20:29.950Z,0.93
2019-03-16T14:23:09.344Z,0.90
2019-03-16T14:25:45.966Z,1.60
2019-03-16T14:28:26.346Z,0.80
2019-03-16T14:31:05.348Z,1.10
2019-03-16T14:33:41.921Z,0.97
2019-03-16T14:42:50.982Z,1.00
2019-03-16T14:45:27.246Z,0.83
2019-03-16T14:48:02.475Z,0.80
2019-03-16T14:50:38.755Z,1.00
2019-03-16T14:53:15.345Z,0.90
2019-03-16T14:55:49.838Z,1.00
2019-03-16T14:58:25.891Z,0.80
2019-03-16T15:01:01.951Z,1.03
2019-03-16T15:03:38.008Z,0.90
2019-03-16T15:06:12.838Z,1.00
2019-03-16T15:08:51.764Z,0.97
2019-03-16T15:11:31.921Z,0.80
2019-03-16T15:14:07.351Z,0.90
2019-03-16T15:16:44.852Z,0.90
2019-03-16T15:19:21.355Z,0.70
2019-03-16T15:25:24.843Z,0.90
2019-03-16T15:37:47.610Z,0.97
2019-03-16T15:44:07.345Z,0.97
2019-03-16T15:46:43.812Z,0.90
2019-03-16T15:52:50.850Z,0.80
2019-03-16T15:58:58.438Z,1.03
2019-03-16T16:05:00.497Z,1.00
2019-03-16T16:07:38.310Z,0.87
2019-03-16T16:16:43.087Z,0.80
2019-03-16T16:19:21.598Z,1.17
2019-03-16T16:25:29.419Z,0.90
2019-03-16T16:28:05.075Z,1.27
2019-03-16T16:30:39.523Z,0.80
2019-03-16T16:33:16.975Z,1.10
2019-03-16T16:35:56.064Z,0.93
2019-03-16T16:38:38.922Z,1.30
2019-03-16T16:41:21.012Z,1.13
2019-03-16T16:43:55.515Z,1.00
2019-03-16T16:46:33.510Z,1.20
2019-03-16T16:49:09.705Z,1.00
2019-03-16T16:51:44.124Z,1.03
2019-03-16T16:54:20.797Z,1.00
2019-03-16T17:00:27.394Z,1.13
2019-03-16T17:03:10.417Z,0.97
2019-03-16T17:06:09.110Z,1.07
2019-03-16T17:11:58.689Z,1.20
2019-03-16T17:14:39.056Z,1.20
2019-03-16T17:17:14.526Z,1.60
2019-03-16T17:19:52.804Z,1.37
2019-03-16T17:22:29.270Z,1.00
2019-03-16T17:25:07.582Z,1.20
2019-03-16T17:31:18.375Z,1.40
2019-03-16T17:33:53.617Z,1.17
2019-03-16T17:36:30.587Z,2.13
2019-03-16T17:42:36.264Z,1.00
2019-03-16T17:45:15.403Z,1.30
2019-03-16T17:51:36.113Z,1.00
2019-03-16T17:57:54.689Z,1.20
2019-03-16T18:04:15.055Z,1.63
2019-03-16T18:06:52.700Z,1.80
2019-03-16T18:09:27.934Z,1.40
2019-03-16T18:12:15.085Z,1.57
2019-03-16T18:14:56.439Z,1.30
2019-03-16T18:17:32.693Z,1.93
2019-03-16T18:20:11.825Z,1.60
2019-03-16T18:22:49.928Z,1.90
2019-03-16T18:25:30.910Z,3.03
2019-03-16T18:28:09.623Z,3.60
2019-03-16T18:30:49.057Z,2.60
2019-03-16T18:33:25.625Z,1.80
2019-03-16T18:36:11.565Z,2.30
2019-03-16T18:38:46.555Z,1.60
2019-03-16T18:41:24.864Z,1.80
2019-03-16T18:44:01.938Z,1.90
2019-03-16T18:46:39.053Z,2.00
2019-03-16T18:49:13.646Z,2.03
2019-03-16T18:51:50.726Z,2.07
2019-03-16T18:54:25.059Z,3.17
2019-03-16T18:57:01.612Z,4.43
2019-03-16T18:59:43.423Z,3.90
2019-03-16T19:02:20.934Z,4.80
2019-03-16T19:04:57.364Z,4.23
2019-03-16T19:07:35.263Z,2.47
2019-03-16T19:10:22.792Z,2.60
2019-03-16T19:12:57.841Z,2.50
2019-03-16T19:15:34.700Z,2.20
2019-03-16T19:18:13.063Z,2.40
2019-03-16T19:20:49.683Z,3.00
2019-03-16T19:23:25.536Z,2.50
2019-03-16T19:29:41.549Z,3.10
2019-03-16T19:32:18.059Z,3.90
2019-03-16T19:34:52.639Z,4.30
2019-03-16T19:37:27.085Z,4.80
2019-03-16T19:43:33.074Z,2.93
2019-03-16T19:46:06.067Z,3.40
2019-03-16T19:48:41.088Z,2.93
2019-03-16T19:54:45.601Z,2.47
2019-03-16T19:57:21.073Z,2.00
2019-03-16T19:59:55.083Z,2.20
2019-03-16T20:02:30.503Z,2.23
2019-03-16T20:05:05.937Z,2.27
2019-03-16T20:07:40.767Z,2.10
2019-03-16T20:10:17.675Z,2.20
2019-03-16T20:12:58.413Z,2.00
2019-03-16T20:15:43.743Z,1.87
2019-03-16T20:18:20.071Z,1.67
2019-03-16T20:20:55.799Z,2.03
2019-03-16T20:23:31.076Z,2.10
2019-03-16T20:26:10.579Z,2.20
2019-03-16T20:28:46.070Z,2.83
2019-03-16T20:31:25.080Z,2.60
2019-03-16T20:34:02.647Z,2.40
2019-03-16T20:36:39.172Z,2.70
2019-03-16T20:39:15.080Z,2.30
2019-03-16T20:41:51.019Z,3.10
2019-03-16T20:44:26.079Z,3.00
2019-03-16T20:47:10.013Z,2.87
2019-03-16T20:49:43.492Z,2.33
2019-03-16T20:52:19.084Z,2.83
2019-03-16T20:54:54.789Z,4.30
2019-03-16T20:57:29.617Z,2.93
2019-03-16T21:00:04.857Z,3.23
2019-03-16T21:02:42.549Z,3.00
2019-03-16T21:05:17.078Z,2.73
2019-03-16T21:07:55.418Z,2.87
2019-03-16T21:16:54.075Z,3.70
2019-03-16T21:19:29.081Z,3.07
2019-03-16T21:22:05.083Z,3.00
2019-03-16T21:24:40.650Z,3.17
2019-03-16T21:33:12.076Z,3.03
2019-03-16T21:35:53.409Z,2.93
2019-03-16T21:42:12.289Z,2.57
2019-03-16T21:44:50.599Z,2.47
2019-03-16T21:47:28.709Z,2.50
2019-03-16T21:50:05.582Z,4.63
2019-03-16T21:56:10.537Z,3.90
2019-03-16T21:58:45.571Z,2.80
2019-03-16T22:01:19.092Z,3.10
2019-03-16T22:06:59.085Z,3.27
2019-03-16T22:13:04.909Z,2.50
2019-03-16T22:19:08.090Z,2.40
2019-03-16T22:21:42.090Z,2.57
2019-03-16T22:24:16.655Z,2.00
2019-03-16T22:26:52.515Z,2.00
2019-03-16T22:29:28.973Z,1.90
2019-03-16T22:32:05.093Z,1.77
2019-03-16T22:34:40.679Z,1.90
2019-03-16T22:37:17.762Z,2.17
2019-03-16T22:39:53.098Z,2.00
2019-03-16T22:42:36.634Z,1.63
2019-03-16T22:45:13.098Z,2.27
2019-03-16T22:47:51.618Z,2.63
2019-03-16T22:50:26.650Z,2.13
2019-03-16T22:53:03.334Z,2.53
2019-03-16T22:55:39.097Z,2.37
2019-03-16T22:58:18.516Z,2.17
2019-03-16T23:00:55.094Z,2.70
2019-03-16T23:03:31.098Z,2.90
2019-03-16T23:06:08.525Z,3.43
2019-03-16T23:09:02.208Z,2.80
2019-03-16T23:11:37.642Z,2.80
2019-03-16T23:14:21.068Z,2.87
2019-03-16T23:17:01.259Z,2.70
2019-03-16T23:19:35.106Z,2.70
2019-03-16T23:22:16.416Z,2.83
2019-03-16T23:24:51.109Z,2.47
2019-03-16T23:27:25.676Z,2.00
2019-03-16T23:30:01.718Z,2.00
2019-03-16T23:32:40.115Z,1.63
2019-03-16T23:35:15.126Z,1.70
2019-03-16T23:37:51.945Z,1.63
2019-03-16T23:40:27.583Z,1.67
2019-03-16T23:43:08.412Z,1.67
2019-03-16T23:45:46.129Z,1.60
2019-03-16T23:48:20.122Z,1.23
2019-03-16T23:50:55.126Z,1.70
2019-03-16T23:53:32.991Z,1.70
2019-03-16T23:56:08.844Z,1.73
2019-03-16T23:58:43.059Z,2.40
